• Join FlightAware (Why Join?)
  • Login
  • US Flag 
Rudolph Flight #1: Arrived! 
04:04AM EST


 

Airport Tracker/Info


-or-


 

Live Flight TrackerFlight Track Log ✈ EJA743 ✈ 30-Apr-2012 ✈ KTEB - KBUR

Flight Track Log - Related Links

Times and Time Zones

All times are in EDT time to prevent confusion due to time zone crossing. See the EJA743 flight status page for this flight to view local times or setup timezone preferences in your user account.

Time Position Orientation Groundspeed Altitude Reporting Facility
EDT Latitude Longitude Course Direction KTS MPH feet Rate Location/Type
09:33AM 40.8437 -74.0981 328° Northwest  Level FlightAware Approximate
09:34AM 40.8333 -74.2512 33° Northeast  Level FlightAware Approximate
09:35AM 40.9294 -74.1686 276° West 239 275 6,100  Level New York Center
09:36AM 40.9369 -74.2706 271° West 263 303 9,000 2,040 Climbing New York Center
09:37AM 40.9381 -74.3694 259° West 295 339 10,300 1,920 Climbing New York Center
09:38AM 40.9247 -74.4619 257° West 322 371 12,800 2,700 Climbing New York Center
09:39AM 40.9019 -74.5900 257° West 335 386 15,700 1,980 Climbing New York Center
09:40AM 40.8817 -74.7039 256° West 340 391 16,800 1,080 Climbing New York Center
09:41AM 40.8558 -74.8453 255° West 359 413 17,900 1,380 Climbing New York Center
09:42AM 40.8308 -74.9697 258° West 359 413 19,600 1,740 Climbing New York Center
09:43AM 40.8092 -75.1028 259° West 364 419 21,500 1,920 Climbing New York Center
09:44AM 40.7900 -75.2278 257° West 379 436 23,500 1,620 Climbing New York Center
09:45AM 40.7658 -75.3658 246° West 384 442 24,800 1,440 Climbing New York Center
09:46AM 40.7211 -75.4997 245° Southwest 391 450 26,400 1,500 Climbing New York Center
09:47AM 40.6739 -75.6333 244° Southwest 402 463 27,900 1,320 Climbing New York Center
09:48AM 40.6225 -75.7692 244° Southwest 413 475 29,200 960 Climbing New York Center
09:49AM 40.5706 -75.9075 241° Southwest 420 483 29,900 660 Climbing New York Center
09:50AM 40.5125 -76.0478 244° Southwest 431 496 30,500 660 Climbing New York Center
09:51AM 40.4581 -76.1911 243° Southwest 437 503 31,200 840 Climbing New York Center
09:52AM 40.4014 -76.3339 248° West 443 510 32,300 1,020 Climbing New York Center
09:53AM 40.3569 -76.4772 258° West 438 504 33,300 840 Climbing New York Center
09:54AM 40.3331 -76.6250 257° West 428 493 34,000 300 Climbing New York Center
09:55AM 40.3067 -76.7753 258° West 421 484 34,000  Level New York Center
09:56AM 40.2819 -76.9311 258° West 432 497 34,000  Level New York Center
09:57AM 40.2572 -77.0867 258° West 438 504 34,000  Level New York Center
09:58AM 40.2319 -77.2422 259° West 444 511 34,000  Level New York Center
10:00AM 40.1872 -77.5528 258° West 431 496 34,000  Level Cleveland Center
10:01AM 40.1622 -77.7086 258° West 431 496 34,000  Level Cleveland Center
10:02AM 40.1367 -77.8619 271° West 431 496 34,000  Level Cleveland Center
10:03AM 40.1383 -78.0194 271° West 431 496 34,000  Level Cleveland Center
10:04AM 40.1397 -78.1769 271° West 431 496 34,000  Level Cleveland Center
10:05AM 40.1408 -78.3289 270° West 424 488 34,000  Level Cleveland Center
10:06AM 40.1417 -78.4864 269° West 424 488 34,000  Level Cleveland Center
10:07AM 40.1403 -78.6414 272° West 424 488 34,000  Level Cleveland Center
10:08AM 40.1450 -78.8014 270° West 435 501 34,000  Level Cleveland Center
10:09AM 40.1453 -78.9561 270° West 435 501 34,000  Level Cleveland Center
10:10AM 40.1453 -79.1111 272° West 435 501 34,000  Level Cleveland Center
10:11AM 40.1492 -79.2631 271° West 435 501 34,000  Level Cleveland Center
10:12AM 40.1508 -79.4178 272° West 435 501 34,000  Level Cleveland Center
10:13AM 40.1544 -79.5861 271° West 425 489 34,000 420 Level Cleveland Center
10:14AM 40.1558 -79.7328 273° West 420 483 34,900 720 Climbing Cleveland Center
10:15AM 40.1608 -79.8822 272° West 415 478 35,500 540 Climbing Cleveland Center
10:16AM 40.1639 -80.0289 271° West 415 478 36,000 240 Climbing Cleveland Center
10:17AM 40.1664 -80.1783 271° West 415 478 36,000  Level Cleveland Center
10:18AM 40.1689 -80.3303 271° West 415 478 36,000  Level Cleveland Center
10:19AM 40.1714 -80.4797 271° West 420 483 36,000  Level Cleveland Center
10:20AM 40.1733 -80.6319 270° West 420 483 36,000  Level Cleveland Center
10:21AM 40.1733 -80.7869 272° West 420 483 36,000  Level Cleveland Center
10:22AM 40.1769 -80.9364 269° West 420 483 36,000  Level Cleveland Center
10:23AM 40.1744 -81.0911 269° West 420 483 36,000  Level Cleveland Center
10:25AM 40.1678 -81.4572 269° West 424 488 36,000  Level Indianapolis Center
10:26AM 40.1661 -81.5983 275° West 424 488 36,000  Level Indianapolis Center
10:27AM 40.1772 -81.7775 271° West 436 502 36,000  Level Indianapolis Center
10:28AM 40.1792 -81.9161 272° West 443 510 36,000  Level Indianapolis Center
10:29AM 40.1833 -82.0761 272° West 436 502 36,000  Level Indianapolis Center
10:30AM 40.1875 -82.2311 273° West 436 502 36,000  Level Indianapolis Center
10:31AM 40.1931 -82.3858 272° West 436 502 36,000  Level Indianapolis Center
10:32AM 40.1967 -82.5406 272° West 431 496 36,000  Level Indianapolis Center
10:33AM 40.2000 -82.6900 272° West 419 482 36,000  Level Indianapolis Center
10:34AM 40.2031 -82.8450 272° West 419 482 36,000  Level Indianapolis Center
10:35AM 40.2081 -83.0106 272° West 419 482 36,000  Level Indianapolis Center
10:36AM 40.2128 -83.1656 271° West 424 488 36,000  Level Indianapolis Center
10:37AM 40.2153 -83.3206 271° West 424 488 36,000  Level Indianapolis Center
10:38AM 40.2178 -83.4728 272° West 424 488 36,000  Level Indianapolis Center
10:39AM 40.2219 -83.6222 271° West 418 481 36,000  Level Indianapolis Center
10:40AM 40.2239 -83.7744 270° West 418 481 36,000  Level Indianapolis Center
10:41AM 40.2233 -83.9267 267° West 424 488 36,000  Level Indianapolis Center
10:42AM 40.2167 -84.0761 268° West 418 481 36,000  Level Indianapolis Center
10:43AM 40.2117 -84.2311 269° West 423 487 36,000  Level Indianapolis Center
10:44AM 40.2086 -84.3833 268° West 423 487 36,000  Level Indianapolis Center
10:45AM 40.2053 -84.5356 268° West 418 481 36,000  Level Indianapolis Center
10:46AM 40.2019 -84.6850 267° West 423 487 36,000  Level Indianapolis Center
10:47AM 40.1961 -84.8369 269° West 418 481 36,000  Level Indianapolis Center
10:49AM 40.1892 -85.1722 268° West 414 476 36,000  Level Chicago Center
10:50AM 40.1842 -85.3222 268° West 414 476 36,000  Level Chicago Center
10:51AM 40.1803 -85.4556 267° West 414 476 36,000  Level Chicago Center
10:52AM 40.1750 -85.6081 268° West 414 476 36,000  Level Chicago Center
10:53AM 40.1717 -85.7578 268° West 414 476 36,000  Level Chicago Center
10:54AM 40.1678 -85.9075 266° West 414 476 36,000  Level Chicago Center
10:55AM 40.1600 -86.0628 267° West 427 491 36,000  Level Chicago Center
10:56AM 40.1539 -86.2178 268° West 427 491 36,000  Level Chicago Center
10:57AM 40.1497 -86.3756 266° West 427 491 36,000  Level Chicago Center
10:58AM 40.1411 -86.5281 267° West 427 491 36,000  Level Chicago Center
10:59AM 40.1344 -86.6778 267° West 420 483 36,000  Level Chicago Center
11:00AM 40.1275 -86.8300 267° West 426 490 36,000  Level Chicago Center
11:01AM 40.1203 -86.9825 266° West 421 484 36,000  Level Chicago Center
11:02AM 40.1128 -87.1294 266° West 421 484 36,000  Level Chicago Center
11:03AM 40.1033 -87.2897 266° West 416 479 36,000  Level Chicago Center
11:04AM 40.0956 -87.4419 267° West 416 479 36,000  Level Chicago Center
11:06AM 40.0847 -87.7172 266° West 408 470 36,000  Level Kansas City Center
11:07AM 40.0761 -87.8619 266° West 408 470 36,000  Level Kansas City Center
11:08AM 40.0675 -88.0064 266° West 403 464 36,000  Level Kansas City Center
11:09AM 40.0586 -88.1536 266° West 408 470 36,000  Level Kansas City Center
11:10AM 40.0517 -88.2981 265° West 408 470 36,100 360 Climbing Kansas City Center
11:11AM 40.0425 -88.4453 265° West 408 470 36,800 600 Climbing Kansas City Center
11:12AM 40.0331 -88.5897 265° West 408 470 37,400 540 Climbing Kansas City Center
11:13AM 40.0233 -88.7342 265° West 408 470 37,900 300 Climbing Kansas City Center
11:14AM 40.0150 -88.8650 265° West 408 470 38,000  Climbing Kansas City Center
11:15AM 40.0053 -89.0119 266° West 408 470 38,000  Level Kansas City Center
11:16AM 39.9972 -89.1589 265° West 413 475 38,000  Level Kansas City Center
11:17AM 39.9869 -89.3033 265° West 408 470 38,000  Level Kansas City Center
11:18AM 39.9783 -89.4447 265° West 403 464 38,000  Level Kansas City Center
11:19AM 39.9678 -89.5892 265° West 403 464 38,000  Level Kansas City Center
11:20AM 39.9589 -89.7278 265° West 403 464 38,000  Level Kansas City Center
11:21AM 39.9497 -89.8692 264° West 403 464 38,000  Level Kansas City Center
11:22AM 39.9383 -90.0108 265° West 403 464 38,000  Level Kansas City Center
11:23AM 39.9289 -90.1494 264° West 398 458 38,000  Level Kansas City Center
11:24AM 39.9172 -90.2881 264° West 398 458 38,000  Level Kansas City Center
11:25AM 39.9053 -90.4267 265° West 393 452 38,000  Level Kansas City Center
11:26AM 39.8956 -90.5681 266° West 388 447 38,000  Level Kansas City Center
11:27AM 39.8875 -90.7089 263° West 393 452 38,000  Level Kansas City Center
11:28AM 39.8753 -90.8475 264° West 393 452 38,000  Level Kansas City Center
11:29AM 39.8647 -90.9861 263° West 388 447 38,000  Level Kansas City Center
11:30AM 39.8522 -91.1272 265° West 394 453 38,000  Level Kansas City Center
11:31AM 39.8436 -91.2656 261° West 394 453 38,000  Level Kansas City Center
11:32AM 39.8264 -91.4122 266° West 399 459 38,000  Level Kansas City Center
11:33AM 39.8197 -91.5503 262° West 399 459 38,000  Level Kansas City Center
11:34AM 39.8042 -91.6942 264° West 399 459 38,000  Level Kansas City Center
11:35AM 39.7931 -91.8350 264° West 399 459 38,000  Level Kansas City Center
11:36AM 39.7814 -91.9703 264° West 394 453 38,000  Level Kansas City Center
11:37AM 39.7697 -92.1111 262° West 394 453 38,000  Level Kansas City Center
11:38AM 39.7556 -92.2494 264° West 389 448 38,000  Level Kansas City Center
11:39AM 39.7436 -92.3900 263° West 389 448 38,000  Level Kansas City Center
11:40AM 39.7314 -92.5253 262° West 389 448 38,000  Level Kansas City Center
11:41AM 39.7169 -92.6608 263° West 389 448 38,000  Level Kansas City Center
11:42AM 39.7042 -92.8011 263° West 389 448 38,000  Level Kansas City Center
11:43AM 39.6917 -92.9392 262° West 389 448 38,000  Level Kansas City Center
11:44AM 39.6767 -93.0769 264° West 389 448 38,000  Level Kansas City Center
11:45AM 39.6658 -93.2172 261° West 389 448 38,000  Level Kansas City Center
11:46AM 39.6483 -93.3525 263° West 389 448 38,000  Level Kansas City Center
11:47AM 39.6350 -93.4956 263° West 389 448 38,000  Level Kansas City Center
11:48AM 39.6217 -93.6303 262° West 389 448 38,000  Level Kansas City Center
11:49AM 39.6058 -93.7786 262° West 389 448 38,000  Level Kansas City Center
11:50AM 39.5900 -93.9189 263° West 389 448 38,000  Level Kansas City Center
11:51AM 39.5781 -94.0428 262° West 389 448 38,000  Level Kansas City Center
11:54AM 39.5311 -94.4683 261° West 389 448 38,000  Level Kansas City Center
11:55AM 39.5164 -94.5947 262° West 395 455 38,000  Level Kansas City Center
11:56AM 39.4994 -94.7481 261° West 395 455 38,000  Level Kansas City Center
11:57AM 39.4825 -94.8850 262° West 390 449 38,000  Level Kansas City Center
11:58AM 39.4694 -95.0086 262° West 395 455 38,000  Level Kansas City Center
11:59AM 39.4519 -95.1672 261° West 402 463 38,000  Level Kansas City Center
12:00PM 39.4344 -95.3094 262° West 409 471 38,000  Level Kansas City Center
12:01PM 39.4189 -95.4489 262° West 409 471 38,000  Level Kansas City Center
12:02PM 39.4033 -95.5831 260° West 414 476 38,000  Level Kansas City Center
12:03PM 39.3831 -95.7386 262° West 409 471 38,000  Level Kansas City Center
12:04PM 39.3669 -95.8806 261° West 409 471 38,000  Level Kansas City Center
12:05PM 39.3508 -96.0089 260° West 409 471 38,000  Level Kansas City Center
12:06PM 39.3300 -96.1617 260° West 400 460 38,000  Level Kansas City Center
12:07PM 39.3136 -96.2872 261° West 394 453 38,000  Level Kansas City Center
12:08PM 39.2944 -96.4397 261° West 394 453 38,000  Level Kansas City Center
12:09PM 39.2775 -96.5786 261° West 394 453 38,000  Level Kansas City Center
12:10PM 39.2606 -96.7203 259° West 399 459 38,000  Level Kansas City Center
12:11PM 39.2389 -96.8669 262° West 416 479 38,000  Level Kansas City Center
12:12PM 39.2236 -97.0086 260° West 411 473 38,000  Level Kansas City Center
12:13PM 39.2061 -97.1364 258° West 404 465 38,000  Level Kansas City Center
12:14PM 39.1822 -97.2803 261° West 409 471 38,000  Level Kansas City Center
12:15PM 39.1617 -97.4428 260° West 414 476 38,000  Level Kansas City Center
12:16PM 39.1411 -97.5892 260° West 414 476 38,000  Level Kansas City Center
12:17PM 39.1233 -97.7169 260° West 414 476 38,000  Level Kansas City Center
12:18PM 39.1025 -97.8631 259° West 414 476 38,000  Level Kansas City Center
12:19PM 39.0792 -98.0225 260° West 414 476 38,000  Level Kansas City Center
12:20PM 39.0608 -98.1525 259° West 409 471 38,000  Level Kansas City Center
12:21PM 39.0369 -98.3117 260° West 420 483 38,000  Level Kansas City Center
12:22PM 39.0156 -98.4603 260° West 420 483 38,000  Level Kansas City Center
12:24PM 38.9744 -98.7464 259° West 420 483 38,000  Level Kansas City Center
12:25PM 38.9525 -98.8919 259° West 420 483 38,000  Level Kansas City Center
12:26PM 38.9306 -99.0375 259° West 420 483 38,000  Level Kansas City Center
12:27PM 38.9081 -99.1856 258° West 425 489 38,000  Level Kansas City Center
12:28PM 38.8833 -99.3361 259° West 425 489 38,000  Level Kansas City Center
12:29PM 38.8608 -99.4786 258° West 425 489 38,000  Level Kansas City Center
12:32PM 38.8011 -99.8408 258° West 423 487 38,000  Level Denver Center
12:33PM 38.7778 -99.9817 260° West 423 487 38,000  Level Denver Center
12:34PM 38.7603 -100.1136 257° West 423 487 38,000  Level Denver Center
12:35PM 38.7347 -100.2544 259° West 418 481 38,000  Level Denver Center
12:36PM 38.7097 -100.4139 258° West 418 481 38,000  Level Denver Center
12:37PM 38.6858 -100.5542 258° West 418 481 38,000  Level Denver Center
12:38PM 38.6636 -100.6892 257° West 423 487 38,000  Level Denver Center
12:39PM 38.6358 -100.8456 259° West 423 487 38,000  Level Denver Center
12:40PM 38.6136 -100.9883 257° West 423 487 38,000  Level Denver Center
12:41PM 38.5872 -101.1367 257° West 423 487 38,000  Level Denver Center
12:42PM 38.5642 -101.2686 258° West 423 487 38,000  Level Denver Center
12:43PM 38.5381 -101.4269 256° West 416 479 38,000  Level Denver Center
12:44PM 38.5108 -101.5697 259° West 421 484 38,000  Level Denver Center
12:45PM 38.4894 -101.7039 256° West 421 484 38,000  Level Denver Center
12:46PM 38.4619 -101.8464 257° West 421 484 38,000  Level Denver Center
12:47PM 38.4328 -102.0100 257° West 421 484 38,000  Level Denver Center
12:48PM 38.4072 -102.1519 257° West 421 484 38,000  Level Denver Center
12:49PM 38.3847 -102.2806 258° West 416 479 38,000  Level Denver Center
12:50PM 38.3572 -102.4383 257° West 422 486 38,000  Level Denver Center
12:51PM 38.3308 -102.5828 255° West 422 486 38,000  Level Denver Center
12:52PM 38.3003 -102.7300 259° West 422 486 38,000  Level Denver Center
12:53PM 38.2794 -102.8606 255° West 427 491 38,000  Level Denver Center
12:54PM 38.2469 -103.0183 256° West 421 484 38,000  Level Denver Center
12:55PM 38.2214 -103.1492 256° West 421 484 38,000  Level Denver Center
12:56PM 38.1906 -103.3064 256° West 421 484 38,000  Level Denver Center
12:57PM 38.1631 -103.4500 257° West 421 484 38,000  Level Denver Center
12:58PM 38.1394 -103.5778 256° West 416 479 38,000  Level Denver Center
12:59PM 38.1097 -103.7242 257° West 421 484 38,000  Level Denver Center
01:00PM 38.0800 -103.8836 255° West 426 490 38,000  Level Denver Center
01:01PM 38.0497 -104.0269 256° West 421 484 38,100 480 Climbing Denver Center
01:02PM 38.0253 -104.1542 256° West 421 484 39,000 660 Climbing Denver Center
01:03PM 37.9931 -104.3133 255° West 421 484 39,500 360 Climbing Denver Center
01:04PM 37.9642 -104.4539 255° West 421 484 39,800 240 Climbing Denver Center
01:05PM 37.9372 -104.5836 255° West 421 484 40,000 60 Climbing Denver Center
01:06PM 37.9064 -104.7342 256° West 427 491 40,000  Level Denver Center
01:07PM 37.8753 -104.8928 254° West 427 491 40,000  Level Denver Center
01:08PM 37.8439 -105.0353 255° West 427 491 40,000  Level Denver Center
01:09PM 37.8161 -105.1647 256° West 427 491 40,000  Level Denver Center
01:10PM 37.7844 -105.3253 253° West 432 497 40,000  Level Denver Center
01:11PM 37.7506 -105.4678 257° West 437 503 40,000  Level Denver Center
01:12PM 37.7225 -105.6178 254° West 437 503 40,000  Level Denver Center
01:13PM 37.6942 -105.7464 253° West 432 497 40,000  Level Denver Center
01:14PM 37.6556 -105.9067 256° West 438 504 40,000  Level Denver Center
01:15PM 37.6269 -106.0511 254° West 438 504 40,000  Level Denver Center
01:16PM 37.5961 -106.1822 256° West 433 498 40,000  Level Denver Center
01:17PM 37.5672 -106.3239 256° West 439 505 40,000  Level Denver Center
01:18PM 37.5339 -106.4861 254° West 430 495 40,000  Level Denver Center
01:19PM 37.5003 -106.6300 254° West 430 495 40,000  Level Denver Center
01:20PM 37.4708 -106.7606 253° West 435 501 40,000  Level Denver Center
01:21PM 37.4350 -106.9067 254° West 435 501 40,000  Level Denver Center
01:22PM 37.3969 -107.0686 255° West 435 501 40,000  Level Denver Center
01:23PM 37.3667 -107.2144 253° West 435 501 40,000  Level Denver Center
01:24PM 37.3344 -107.3447 254° West 435 501 40,000  Level Denver Center
01:25PM 37.3022 -107.4878 255° West 435 501 40,000  Level Denver Center
01:26PM 37.2672 -107.6461 252° West 435 501 40,000  Level Denver Center
01:27PM 37.2303 -107.7864 255° West 435 501 40,000  Level Denver Center
01:28PM 37.2017 -107.9186 254° West 435 501 40,000  Level Denver Center
01:29PM 37.1639 -108.0794 252° West 440 506 40,000  Level Denver Center
01:30PM 37.1286 -108.2192 254° West 435 501 40,000  Level Denver Center
01:31PM 37.0947 -108.3692 252° West 440 506 40,000  Level Denver Center
01:32PM 37.0614 -108.5008 254° West 440 506 40,000  Level Denver Center
01:33PM 37.0228 -108.6661 252° West 440 506 40,000  Level Denver Center
01:34PM 36.9844 -108.8131 253° West 446 513 40,000  Level Denver Center
01:35PM 36.9503 -108.9497 253° West 451 519 40,000  Level Denver Center
01:36PM 36.9136 -109.1014 253° West 458 527 40,000  Level Denver Center
01:37PM 36.8719 -109.2686 252° West 458 527 40,000  Level Denver Center
01:38PM 36.8328 -109.4175 252° West 458 527 40,000  Level Denver Center
01:39PM 36.7981 -109.5533 252° West 458 527 40,000  Level Denver Center
01:40PM 36.7558 -109.7197 252° West 458 527 40,000  Level Denver Center
01:41PM 36.7158 -109.8708 252° West 450 518 40,000  Level Denver Center
01:42PM 36.6781 -110.0192 249° West 456 525 40,000  Level Denver Center
01:43PM 36.6336 -110.1669 252° West 456 525 40,000  Level Denver Center
01:44PM 36.5953 -110.3175 251° West 456 525 40,000  Level Denver Center
01:45PM 36.5525 -110.4700 253° West 461 531 40,000  Level Denver Center
01:46PM 36.5158 -110.6206 252° West 461 531 40,000  Level Denver Center
01:47PM 36.4794 -110.7578 252° West 461 531 40,000  Level Denver Center
01:48PM 36.4403 -110.9075 252° West 461 531 40,000  Level Denver Center
01:50PM 36.3614 -111.2114 251° West 462 532 40,000  Level Los Angeles Center
01:51PM 36.3194 -111.3636 251° West 467 537 40,000  Level Los Angeles Center
01:52PM 36.2772 -111.5156 252° West 467 537 40,000  Level Los Angeles Center
01:53PM 36.2333 -111.6828 251° West 472 543 40,000  Level Los Angeles Center
01:54PM 36.1908 -111.8344 252° West 472 543 40,000  Level Los Angeles Center
01:55PM 36.1503 -111.9883 250° West 472 543 40,000  Level Los Angeles Center
01:56PM 36.1072 -112.1369 251° West 472 543 40,000  Level Los Angeles Center
01:57PM 36.0642 -112.2908 250° West 472 543 40,000  Level Los Angeles Center
01:58PM 36.0244 -112.4236 250° West 472 543 40,000  Level Los Angeles Center
01:59PM 35.9811 -112.5744 251° West 472 543 40,000  Level Los Angeles Center
02:00PM 35.9356 -112.7406 251° West 472 543 40,000  Level Los Angeles Center
02:01PM 35.8939 -112.8911 250° West 472 543 40,000  Level Los Angeles Center
02:02PM 35.8478 -113.0442 251° West 472 543 40,000  Level Los Angeles Center
02:03PM 35.8056 -113.1967 250° West 472 543 40,000  Level Los Angeles Center
02:04PM 35.7611 -113.3442 250° West 472 543 40,000  Level Los Angeles Center
02:05PM 35.7164 -113.4967 250° West 472 543 40,000 -300 Level Los Angeles Center
02:06PM 35.6756 -113.6336 250° West 472 543 39,400 -840 Descending Los Angeles Center
02:07PM 35.6306 -113.7831 250° West 472 543 38,400 -1,020 Descending Los Angeles Center
02:08PM 35.5853 -113.9350 250° West 472 543 37,400 -1,020 Descending Los Angeles Center
02:09PM 35.5419 -114.0817 250° West 472 543 36,400 -720 Descending Los Angeles Center
02:10PM 35.4964 -114.2333 250° West 472 543 36,000 -420 Descending Los Angeles Center
02:11PM 35.4525 -114.3772 250° West 472 543 35,600 -720 Descending Los Angeles Center
02:12PM 35.4067 -114.5311 249° West 472 543 34,600 -780 Descending Los Angeles Center
02:13PM 35.3586 -114.6822 250° West 477 549 34,100 -300 Descending Los Angeles Center
02:14PM 35.3122 -114.8383 248° West 477 549 34,000 -60 Descending Los Angeles Center
02:15PM 35.2617 -114.9944 249° West 477 549 34,000  Level Los Angeles Center
02:16PM 35.2150 -115.1450 247° West 477 549 34,000  Level Los Angeles Center
02:17PM 35.1578 -115.3133 249° West 482 555 34,000  Level Los Angeles Center
02:18PM 35.1086 -115.4686 250° West 487 560 34,000  Level Los Angeles Center
02:19PM 35.0614 -115.6239 248° West 487 560 34,000  Level Los Angeles Center
02:20PM 35.0117 -115.7739 250° West 487 560 34,000 -540 Level Los Angeles Center
02:21PM 34.9661 -115.9236 249° West 487 560 33,000 -1,800 Descending Los Angeles Center
02:22PM 34.9183 -116.0781 249° West 487 560 30,500 -2,520 Descending Los Angeles Center
02:23PM 34.8703 -116.2328 247° West 492 566 28,000 -2,700 Descending Los Angeles Center
02:24PM 34.8178 -116.3819 257° West 492 566 25,200 -2,400 Descending Los Angeles Center
02:25PM 34.7883 -116.5361 262° West 487 560 23,300 -1,140 Descending Los Angeles Center
02:26PM 34.7708 -116.6928 263° West 475 547 23,000 -240 Descending Los Angeles Center
02:27PM 34.7556 -116.8544 262° West 475 547 22,900 -480 Descending Los Angeles Center
02:28PM 34.7378 -117.0136 264° West 480 552 22,100 -480 Descending Los Angeles Center
02:29PM 34.7239 -117.1725 262° West 480 552 22,000 -600 Descending Los Angeles Center
02:30PM 34.7078 -117.3189 263° West 473 544 21,000 -1,080 Descending Los Angeles Center
02:31PM 34.6939 -117.4603 261° West 445 512 19,900 -1,560 Descending Los Angeles Center
02:32PM 34.6756 -117.6039 261° West 439 505 17,900 -1,800 Descending Los Angeles Center
02:33PM 34.6594 -117.7250 259° West 427 491 16,400 -1,800 Descending Los Angeles Center
02:34PM 34.6389 -117.8583 261° West 416 479 14,400 -1,380 Descending Los Angeles Center
02:39PM 34.5667 -118.3833 244° Southwest 263 303 8,000 -1,140 Descending Southern California TRACON
02:40PM 34.5333 -118.4667 212° Southwest 276 318 7,800 -900 Descending Southern California TRACON
02:41PM 34.4667 -118.5167 212° Southwest 269 310 6,200 -1,380 Descending Southern California TRACON
02:42PM 34.4000 -118.5667 202° Southwest 261 300 5,000 -600 Descending Southern California TRACON
02:43PM 34.3333 -118.6000 220° Southwest 262 302 5,000  Level Southern California TRACON
02:44PM 34.2833 -118.6500 168° South 249 287 5,000 -360 Level Southern California TRACON
02:45PM 34.2167 -118.6333 107° East 249 287 4,300 -900 Descending Southern California TRACON
02:46PM 34.2000 -118.5667 90° East 213 245 3,200 -780 Descending Southern California TRACON
02:47PM 34.2000 -118.5000 90° East 178 205 2,800 -660 Descending Southern California TRACON
02:48PM 34.2000 -118.4500 90° East 165 190 2,000 -900 Descending Southern California TRACON
02:49PM 34.2000 -118.3833 90° East 141 162 1,100 -840 Descending Southern California TRACON